Accueil
METAR-TAF:

METAR-TAF

Aéroports :

Aéroport d'Elâzığ

Elazığ, Turquie

latitude: 38-36N, longitude: 039-17E, altitude: 902 m

Observation

Le bulletin a été fait il y a 1 heure et 17 minutes, à 03:50 UTC
Vent 7 kt de ouest/sud-ouest
Température -1°C
Humidité 100%
Pression 1024 hPa
Visibilité: 7000 m

METAR: LTCA 190350Z 25007KT 7000 NSC M01/M01 Q1024 TEMPO 4000 BR

Heure: 08:07 (05:07 UTC)

Prévision

Le bulletin a été fait il y a 3 heures et 27 minutes, à 01:40 UTC
Prévision valable du 19 à 03 UTC au 19 à 12 UTC
Vent 2 kt de direction variable
Visibilité 10 km ou plus
pas de nuages en-dessous de 1500 mètres et pas de cumulonimbus.
Temporairement
du 19 à 03 UTC au 19 à 06 UTC
Visibilité: 4000 m
brume
Evoluant progressivement
du 19 à 07 UTC au 19 à 10 UTC
Nuages épars à une hauteur de 3500 ft
Nuages fragmentés à une hauteur de 10000 ft

TAF: LTCA 190140Z 1903/1912 VRB02KT CAVOK TEMPO 1903/1906 4000 BR BECMG 1907/1910 SCT035 BKN100

Observations et prévisions météorologiques de plus de 4000 aéroports (messages METAR et TAF).

Les stations disponibles sont représentées par des disques jaunes et rouges sur la carte.

Passer la souris dessus pour voir le nom de la station.

Cliquer dessus pour voir les observations et prévisions météorologiques.

Pour changer de carte: cliquez sur les boutons verts avec une croix noire pour zoomer, sur le bouton vert avec un tiret pour effectuer un zoom arrière, ou sur les flèches vertes pour les cartes adjacentes.


METAR-TAF: